National Weather Service Raw Text Product

Displaying AFOS PIL: TAFOTM Received: 2018-04-17 11:07 UTC


229 
FTUS43 KDMX 171107 AAB
TAFOTM
TAF AMD
KOTM 171107Z 1711/1806 33007KT P6SM SCT250
     FM171400 03006KT P6SM SCT250
     FM171900 08006KT P6SM SCT250
     FM180200 09011KT P6SM SCT120=